sensor_id;sensor_type;location;lat;lon;timestamp;P1;durP1;ratioP1;P2;durP2;ratioP2
795;SDS011;381;48.770;9.188;2023-03-01T00:03:15;19.37;;;17.33;;
795;SDS011;381;48.770;9.188;2023-03-01T00:08:17;19.70;;;17.80;;
795;SDS011;381;48.770;9.188;2023-03-01T00:13:19;19.60;;;17.60;;
795;SDS011;381;48.770;9.188;2023-03-01T00:18:22;18.80;;;16.93;;
795;SDS011;381;48.770;9.188;2023-03-01T00:23:25;20.50;;;18.33;;
795;SDS011;381;48.770;9.188;2023-03-01T00:28:28;19.00;;;17.00;;
795;SDS011;381;48.770;9.188;2023-03-01T00:33:31;19.87;;;17.87;;
795;SDS011;381;48.770;9.188;2023-03-01T00:38:34;19.73;;;17.67;;
795;SDS011;381;48.770;9.188;2023-03-01T00:43:37;18.83;;;16.93;;
795;SDS011;381;48.770;9.188;2023-03-01T00:48:40;29.53;;;23.10;;
795;SDS011;381;48.770;9.188;2023-03-01T00:53:43;18.13;;;16.30;;
795;SDS011;381;48.770;9.188;2023-03-01T00:58:46;20.07;;;18.07;;
795;SDS011;381;48.770;9.188;2023-03-01T01:03:50;18.73;;;16.93;;
795;SDS011;381;48.770;9.188;2023-03-01T01:08:54;19.47;;;17.40;;
795;SDS011;381;48.770;9.188;2023-03-01T01:13:56;19.67;;;17.77;;
795;SDS011;381;48.770;9.188;2023-03-01T01:19:00;19.23;;;17.20;;
795;SDS011;381;48.770;9.188;2023-03-01T01:24:03;20.73;;;18.57;;
795;SDS011;381;48.770;9.188;2023-03-01T01:29:06;19.37;;;17.43;;
795;SDS011;381;48.770;9.188;2023-03-01T01:34:12;20.10;;;18.17;;
795;SDS011;381;48.770;9.188;2023-03-01T01:39:15;20.30;;;18.30;;
795;SDS011;381;48.770;9.188;2023-03-01T01:44:19;19.90;;;17.90;;
795;SDS011;381;48.770;9.188;2023-03-01T01:49:28;19.30;;;17.30;;
795;SDS011;381;48.770;9.188;2023-03-01T01:54:37;19.50;;;17.63;;
795;SDS011;381;48.770;9.188;2023-03-01T01:59:43;22.20;;;19.90;;
795;SDS011;381;48.770;9.188;2023-03-01T02:04:52;20.60;;;18.50;;
795;SDS011;381;48.770;9.188;2023-03-01T02:10:00;20.73;;;18.63;;
795;SDS011;381;48.770;9.188;2023-03-01T02:15:03;21.30;;;18.43;;
795;SDS011;381;48.770;9.188;2023-03-01T02:20:10;20.97;;;18.60;;
795;SDS011;381;48.770;9.188;2023-03-01T02:25:31;21.40;;;19.20;;
795;SDS011;381;48.770;9.188;2023-03-01T02:36:03;20.90;;;18.87;;
795;SDS011;381;48.770;9.188;2023-03-01T02:41:09;22.43;;;19.13;;
795;SDS011;381;48.770;9.188;2023-03-01T02:46:15;20.33;;;18.20;;
795;SDS011;381;48.770;9.188;2023-03-01T02:51:23;20.77;;;18.60;;
795;SDS011;381;48.770;9.188;2023-03-01T02:56:44;20.00;;;18.10;;
795;SDS011;381;48.770;9.188;2023-03-01T03:01:52;21.63;;;19.43;;
795;SDS011;381;48.770;9.188;2023-03-01T03:06:54;22.20;;;19.90;;
795;SDS011;381;48.770;9.188;2023-03-01T03:11:57;31.47;;;27.07;;
795;SDS011;381;48.770;9.188;2023-03-01T03:17:01;21.23;;;19.07;;
795;SDS011;381;48.770;9.188;2023-03-01T03:22:06;20.80;;;18.60;;
795;SDS011;381;48.770;9.188;2023-03-01T03:27:09;20.83;;;18.73;;
795;SDS011;381;48.770;9.188;2023-03-01T03:32:12;20.27;;;18.37;;
795;SDS011;381;48.770;9.188;2023-03-01T03:37:14;21.37;;;19.17;;
795;SDS011;381;48.770;9.188;2023-03-01T03:42:30;21.43;;;19.20;;
795;SDS011;381;48.770;9.188;2023-03-01T03:47:34;22.70;;;20.30;;
795;SDS011;381;48.770;9.188;2023-03-01T03:52:36;20.93;;;18.53;;
795;SDS011;381;48.770;9.188;2023-03-01T03:57:39;22.00;;;19.87;;
795;SDS011;381;48.770;9.188;2023-03-01T04:02:44;20.77;;;18.77;;
795;SDS011;381;48.770;9.188;2023-03-01T04:07:47;21.10;;;19.10;;
795;SDS011;381;48.770;9.188;2023-03-01T04:12:49;22.73;;;20.13;;
795;SDS011;381;48.770;9.188;2023-03-01T04:17:53;22.90;;;20.47;;
795;SDS011;381;48.770;9.188;2023-03-01T04:22:56;21.90;;;19.70;;
795;SDS011;381;48.770;9.188;2023-03-01T04:28:09;22.20;;;19.93;;
795;SDS011;381;48.770;9.188;2023-03-01T04:33:12;22.67;;;20.50;;
795;SDS011;381;48.770;9.188;2023-03-01T04:38:15;22.90;;;20.57;;
795;SDS011;381;48.770;9.188;2023-03-01T04:43:17;22.50;;;20.27;;
795;SDS011;381;48.770;9.188;2023-03-01T04:48:21;22.83;;;20.53;;
795;SDS011;381;48.770;9.188;2023-03-01T04:53:23;22.33;;;20.00;;
795;SDS011;381;48.770;9.188;2023-03-01T04:58:25;22.00;;;19.70;;
795;SDS011;381;48.770;9.188;2023-03-01T05:03:30;23.10;;;20.87;;
795;SDS011;381;48.770;9.188;2023-03-01T05:08:32;23.57;;;21.37;;
795;SDS011;381;48.770;9.188;2023-03-01T05:13:34;24.60;;;22.10;;
795;SDS011;381;48.770;9.188;2023-03-01T05:18:38;24.57;;;22.07;;
795;SDS011;381;48.770;9.188;2023-03-01T05:23:42;23.17;;;20.87;;
795;SDS011;381;48.770;9.188;2023-03-01T05:28:44;27.60;;;21.53;;
795;SDS011;381;48.770;9.188;2023-03-01T05:33:47;24.97;;;22.40;;
795;SDS011;381;48.770;9.188;2023-03-01T05:38:59;24.33;;;21.73;;
795;SDS011;381;48.770;9.188;2023-03-01T05:44:01;24.77;;;22.17;;
795;SDS011;381;48.770;9.188;2023-03-01T05:49:06;23.80;;;21.40;;
795;SDS011;381;48.770;9.188;2023-03-01T05:54:08;25.07;;;22.57;;
795;SDS011;381;48.770;9.188;2023-03-01T05:59:11;22.70;;;20.43;;
795;SDS011;381;48.770;9.188;2023-03-01T06:04:15;24.67;;;22.10;;
795;SDS011;381;48.770;9.188;2023-03-01T06:09:17;25.63;;;23.07;;
795;SDS011;381;48.770;9.188;2023-03-01T06:14:22;24.50;;;22.10;;
795;SDS011;381;48.770;9.188;2023-03-01T06:19:25;25.47;;;22.70;;
795;SDS011;381;48.770;9.188;2023-03-01T06:24:27;24.20;;;21.60;;
795;SDS011;381;48.770;9.188;2023-03-01T06:29:30;24.67;;;22.07;;
795;SDS011;381;48.770;9.188;2023-03-01T06:34:33;26.53;;;23.77;;
795;SDS011;381;48.770;9.188;2023-03-01T06:39:36;24.20;;;21.50;;
795;SDS011;381;48.770;9.188;2023-03-01T06:44:38;24.07;;;21.57;;
795;SDS011;381;48.770;9.188;2023-03-01T06:49:41;23.27;;;20.87;;
795;SDS011;381;48.770;9.188;2023-03-01T06:54:43;23.20;;;20.80;;
795;SDS011;381;48.770;9.188;2023-03-01T06:59:46;25.27;;;22.70;;
795;SDS011;381;48.770;9.188;2023-03-01T07:04:49;25.00;;;22.50;;
795;SDS011;381;48.770;9.188;2023-03-01T07:09:52;27.03;;;23.07;;
795;SDS011;381;48.770;9.188;2023-03-01T07:14:54;24.13;;;21.57;;
795;SDS011;381;48.770;9.188;2023-03-01T07:19:58;26.43;;;23.60;;
795;SDS011;381;48.770;9.188;2023-03-01T07:25:00;25.13;;;22.43;;
795;SDS011;381;48.770;9.188;2023-03-01T07:30:02;25.67;;;23.07;;
795;SDS011;381;48.770;9.188;2023-03-01T07:35:06;25.53;;;22.93;;
795;SDS011;381;48.770;9.188;2023-03-01T07:40:09;26.40;;;23.60;;
795;SDS011;381;48.770;9.188;2023-03-01T07:45:12;25.40;;;23.00;;
795;SDS011;381;48.770;9.188;2023-03-01T07:50:16;28.77;;;23.93;;
795;SDS011;381;48.770;9.188;2023-03-01T07:55:18;27.10;;;23.47;;
795;SDS011;381;48.770;9.188;2023-03-01T08:00:21;26.23;;;23.43;;
795;SDS011;381;48.770;9.188;2023-03-01T08:05:25;28.20;;;24.20;;
795;SDS011;381;48.770;9.188;2023-03-01T08:10:27;25.30;;;22.57;;
795;SDS011;381;48.770;9.188;2023-03-01T08:15:29;26.60;;;23.90;;
795;SDS011;381;48.770;9.188;2023-03-01T08:20:32;34.10;;;24.40;;
795;SDS011;381;48.770;9.188;2023-03-01T08:25:34;26.40;;;23.60;;
795;SDS011;381;48.770;9.188;2023-03-01T08:30:36;27.83;;;24.93;;
795;SDS011;381;48.770;9.188;2023-03-01T08:35:40;26.47;;;23.77;;
795;SDS011;381;48.770;9.188;2023-03-01T08:40:42;28.97;;;25.20;;
795;SDS011;381;48.770;9.188;2023-03-01T08:45:48;27.90;;;25.00;;
795;SDS011;381;48.770;9.188;2023-03-01T08:50:52;26.70;;;23.90;;
795;SDS011;381;48.770;9.188;2023-03-01T08:55:54;26.63;;;23.70;;
795;SDS011;381;48.770;9.188;2023-03-01T09:00:56;26.97;;;24.13;;
795;SDS011;381;48.770;9.188;2023-03-01T09:06:00;25.80;;;22.70;;
795;SDS011;381;48.770;9.188;2023-03-01T09:11:06;26.70;;;23.40;;
795;SDS011;381;48.770;9.188;2023-03-01T09:16:11;26.77;;;23.97;;
795;SDS011;381;48.770;9.188;2023-03-01T09:21:16;28.40;;;25.23;;
795;SDS011;381;48.770;9.188;2023-03-01T09:26:19;25.57;;;22.90;;
795;SDS011;381;48.770;9.188;2023-03-01T09:31:24;27.40;;;24.60;;
795;SDS011;381;48.770;9.188;2023-03-01T09:36:27;27.57;;;24.67;;
795;SDS011;381;48.770;9.188;2023-03-01T09:41:36;27.27;;;24.40;;
795;SDS011;381;48.770;9.188;2023-03-01T09:46:51;25.53;;;23.03;;
795;SDS011;381;48.770;9.188;2023-03-01T09:51:56;27.37;;;24.57;;
795;SDS011;381;48.770;9.188;2023-03-01T09:57:07;27.43;;;24.50;;
795;SDS011;381;48.770;9.188;2023-03-01T10:02:24;24.97;;;22.37;;
795;SDS011;381;48.770;9.188;2023-03-01T10:07:36;25.93;;;23.33;;
795;SDS011;381;48.770;9.188;2023-03-01T10:12:45;25.00;;;22.50;;
795;SDS011;381;48.770;9.188;2023-03-01T10:17:48;25.93;;;23.23;;
795;SDS011;381;48.770;9.188;2023-03-01T10:22:54;25.17;;;22.50;;
795;SDS011;381;48.770;9.188;2023-03-01T10:27:59;23.30;;;20.90;;
795;SDS011;381;48.770;9.188;2023-03-01T10:33:08;25.63;;;23.00;;
795;SDS011;381;48.770;9.188;2023-03-01T10:38:18;24.20;;;21.80;;
795;SDS011;381;48.770;9.188;2023-03-01T10:43:21;24.47;;;21.87;;
795;SDS011;381;48.770;9.188;2023-03-01T10:48:24;23.80;;;21.20;;
795;SDS011;381;48.770;9.188;2023-03-01T10:53:32;25.97;;;23.17;;
795;SDS011;381;48.770;9.188;2023-03-01T10:58:35;24.03;;;21.57;;
795;SDS011;381;48.770;9.188;2023-03-01T11:03:38;24.87;;;21.97;;
795;SDS011;381;48.770;9.188;2023-03-01T11:08:43;24.47;;;21.90;;
795;SDS011;381;48.770;9.188;2023-03-01T11:13:50;23.27;;;20.87;;
795;SDS011;381;48.770;9.188;2023-03-01T11:18:55;25.70;;;22.60;;
795;SDS011;381;48.770;9.188;2023-03-01T11:24:01;22.20;;;20.00;;
795;SDS011;381;48.770;9.188;2023-03-01T11:29:05;22.37;;;19.90;;
795;SDS011;381;48.770;9.188;2023-03-01T11:34:19;24.83;;;22.23;;
795;SDS011;381;48.770;9.188;2023-03-01T11:39:31;23.93;;;21.33;;
795;SDS011;381;48.770;9.188;2023-03-01T11:44:39;23.07;;;20.63;;
795;SDS011;381;48.770;9.188;2023-03-01T11:49:50;25.17;;;22.57;;
795;SDS011;381;48.770;9.188;2023-03-01T11:55:15;25.03;;;22.43;;
795;SDS011;381;48.770;9.188;2023-03-01T12:00:31;23.00;;;20.70;;
795;SDS011;381;48.770;9.188;2023-03-01T12:05:59;23.90;;;21.50;;
795;SDS011;381;48.770;9.188;2023-03-01T12:11:29;23.40;;;21.00;;
795;SDS011;381;48.770;9.188;2023-03-01T12:16:54;22.93;;;20.10;;
795;SDS011;381;48.770;9.188;2023-03-01T12:22:13;21.40;;;19.30;;
795;SDS011;381;48.770;9.188;2023-03-01T12:27:40;23.33;;;21.13;;
795;SDS011;381;48.770;9.188;2023-03-01T12:32:55;23.10;;;20.20;;
795;SDS011;381;48.770;9.188;2023-03-01T12:38:12;23.07;;;20.67;;
795;SDS011;381;48.770;9.188;2023-03-01T12:43:33;21.40;;;19.30;;
795;SDS011;381;48.770;9.188;2023-03-01T12:48:46;20.90;;;18.90;;
795;SDS011;381;48.770;9.188;2023-03-01T12:53:58;22.27;;;20.00;;
795;SDS011;381;48.770;9.188;2023-03-01T12:59:09;21.60;;;19.30;;
795;SDS011;381;48.770;9.188;2023-03-01T13:04:28;20.40;;;18.30;;
795;SDS011;381;48.770;9.188;2023-03-01T13:09:39;20.00;;;17.73;;
795;SDS011;381;48.770;9.188;2023-03-01T13:14:47;20.00;;;18.07;;
795;SDS011;381;48.770;9.188;2023-03-01T13:19:55;20.03;;;18.07;;
795;SDS011;381;48.770;9.188;2023-03-01T13:25:02;19.67;;;17.70;;
795;SDS011;381;48.770;9.188;2023-03-01T13:35:44;19.23;;;17.33;;
795;SDS011;381;48.770;9.188;2023-03-01T13:40:58;20.73;;;17.87;;
795;SDS011;381;48.770;9.188;2023-03-01T13:46:07;22.27;;;18.63;;
795;SDS011;381;48.770;9.188;2023-03-01T13:51:12;22.70;;;20.20;;
795;SDS011;381;48.770;9.188;2023-03-01T13:56:15;23.00;;;20.70;;
795;SDS011;381;48.770;9.188;2023-03-01T14:01:24;22.67;;;20.43;;
795;SDS011;381;48.770;9.188;2023-03-01T14:06:28;22.80;;;20.40;;
795;SDS011;381;48.770;9.188;2023-03-01T14:11:39;22.60;;;20.37;;
795;SDS011;381;48.770;9.188;2023-03-01T14:16:58;25.57;;;21.33;;
795;SDS011;381;48.770;9.188;2023-03-01T14:22:12;29.07;;;20.60;;
795;SDS011;381;48.770;9.188;2023-03-01T14:27:20;24.10;;;21.60;;
795;SDS011;381;48.770;9.188;2023-03-01T14:32:25;24.30;;;20.60;;
795;SDS011;381;48.770;9.188;2023-03-01T14:37:30;25.70;;;23.10;;
795;SDS011;381;48.770;9.188;2023-03-01T14:42:34;23.10;;;20.60;;
795;SDS011;381;48.770;9.188;2023-03-01T14:53:49;24.30;;;21.33;;
795;SDS011;381;48.770;9.188;2023-03-01T14:59:22;23.43;;;21.20;;
795;SDS011;381;48.770;9.188;2023-03-01T15:04:40;25.00;;;21.30;;
795;SDS011;381;48.770;9.188;2023-03-01T15:10:04;23.47;;;20.97;;
795;SDS011;381;48.770;9.188;2023-03-01T15:15:47;23.87;;;21.27;;
795;SDS011;381;48.770;9.188;2023-03-01T15:26:32;24.03;;;21.53;;
795;SDS011;381;48.770;9.188;2023-03-01T15:31:39;23.70;;;21.40;;
795;SDS011;381;48.770;9.188;2023-03-01T15:36:42;24.67;;;21.83;;
795;SDS011;381;48.770;9.188;2023-03-01T15:41:47;25.43;;;22.70;;
795;SDS011;381;48.770;9.188;2023-03-01T15:46:49;23.27;;;19.97;;
795;SDS011;381;48.770;9.188;2023-03-01T15:51:52;23.30;;;20.80;;
795;SDS011;381;48.770;9.188;2023-03-01T15:57:13;22.97;;;20.53;;
795;SDS011;381;48.770;9.188;2023-03-01T16:02:15;22.43;;;20.20;;
795;SDS011;381;48.770;9.188;2023-03-01T16:07:17;23.73;;;21.33;;
795;SDS011;381;48.770;9.188;2023-03-01T16:12:21;24.70;;;20.90;;
795;SDS011;381;48.770;9.188;2023-03-01T16:17:24;23.57;;;21.17;;
795;SDS011;381;48.770;9.188;2023-03-01T16:22:26;21.77;;;19.47;;
795;SDS011;381;48.770;9.188;2023-03-01T16:27:30;22.83;;;20.53;;
795;SDS011;381;48.770;9.188;2023-03-01T16:32:32;22.97;;;20.60;;
795;SDS011;381;48.770;9.188;2023-03-01T16:37:34;22.37;;;20.17;;
795;SDS011;381;48.770;9.188;2023-03-01T16:42:38;23.90;;;19.90;;
795;SDS011;381;48.770;9.188;2023-03-01T16:47:41;22.80;;;20.60;;
795;SDS011;381;48.770;9.188;2023-03-01T16:52:43;24.07;;;21.53;;
795;SDS011;381;48.770;9.188;2023-03-01T16:57:46;21.03;;;18.83;;
795;SDS011;381;48.770;9.188;2023-03-01T17:02:48;22.73;;;20.13;;
795;SDS011;381;48.770;9.188;2023-03-01T17:08:24;24.63;;;20.90;;
795;SDS011;381;48.770;9.188;2023-03-01T17:13:31;23.53;;;20.67;;
795;SDS011;381;48.770;9.188;2023-03-01T17:18:36;22.33;;;20.03;;
795;SDS011;381;48.770;9.188;2023-03-01T17:23:40;23.50;;;21.00;;
795;SDS011;381;48.770;9.188;2023-03-01T17:28:45;26.07;;;20.17;;
795;SDS011;381;48.770;9.188;2023-03-01T17:33:51;21.87;;;19.67;;
795;SDS011;381;48.770;9.188;2023-03-01T17:38:53;21.97;;;19.70;;
795;SDS011;381;48.770;9.188;2023-03-01T17:43:56;23.83;;;21.30;;
795;SDS011;381;48.770;9.188;2023-03-01T17:49:04;22.50;;;20.13;;
795;SDS011;381;48.770;9.188;2023-03-01T17:54:06;24.43;;;21.70;;
795;SDS011;381;48.770;9.188;2023-03-01T17:59:09;31.40;;;27.77;;
795;SDS011;381;48.770;9.188;2023-03-01T18:04:11;47.30;;;39.40;;
795;SDS011;381;48.770;9.188;2023-03-01T18:09:13;33.33;;;27.73;;
795;SDS011;381;48.770;9.188;2023-03-01T18:14:17;33.50;;;29.93;;
795;SDS011;381;48.770;9.188;2023-03-01T18:19:19;39.63;;;32.70;;
795;SDS011;381;48.770;9.188;2023-03-01T18:24:21;32.97;;;27.07;;
795;SDS011;381;48.770;9.188;2023-03-01T18:29:25;42.10;;;33.97;;
795;SDS011;381;48.770;9.188;2023-03-01T18:34:27;25.83;;;22.40;;
795;SDS011;381;48.770;9.188;2023-03-01T18:39:29;25.27;;;22.60;;
795;SDS011;381;48.770;9.188;2023-03-01T18:44:33;25.77;;;22.50;;
795;SDS011;381;48.770;9.188;2023-03-01T18:49:55;26.47;;;23.37;;
795;SDS011;381;48.770;9.188;2023-03-01T18:55:17;26.53;;;22.30;;
795;SDS011;381;48.770;9.188;2023-03-01T19:57:56;28.93;;;25.87;;
795;SDS011;381;48.770;9.188;2023-03-01T20:03:10;28.00;;;24.97;;
795;SDS011;381;48.770;9.188;2023-03-01T20:08:13;29.00;;;26.00;;
795;SDS011;381;48.770;9.188;2023-03-01T20:13:15;26.40;;;23.50;;
795;SDS011;381;48.770;9.188;2023-03-01T20:18:20;26.40;;;23.70;;
795;SDS011;381;48.770;9.188;2023-03-01T20:23:23;28.70;;;25.40;;
795;SDS011;381;48.770;9.188;2023-03-01T20:28:26;28.00;;;25.00;;
795;SDS011;381;48.770;9.188;2023-03-01T20:33:28;27.80;;;24.80;;
795;SDS011;381;48.770;9.188;2023-03-01T20:38:32;27.23;;;23.60;;
795;SDS011;381;48.770;9.188;2023-03-01T20:43:36;27.00;;;22.97;;
795;SDS011;381;48.770;9.188;2023-03-01T20:48:39;29.80;;;25.10;;
795;SDS011;381;48.770;9.188;2023-03-01T20:53:44;27.47;;;24.53;;
795;SDS011;381;48.770;9.188;2023-03-01T20:58:46;26.90;;;24.10;;
795;SDS011;381;48.770;9.188;2023-03-01T21:03:48;28.87;;;24.53;;
795;SDS011;381;48.770;9.188;2023-03-01T21:08:52;26.90;;;24.07;;
795;SDS011;381;48.770;9.188;2023-03-01T21:13:54;30.10;;;25.43;;
795;SDS011;381;48.770;9.188;2023-03-01T21:18:57;31.10;;;26.97;;
795;SDS011;381;48.770;9.188;2023-03-01T21:24:02;29.30;;;25.83;;
795;SDS011;381;48.770;9.188;2023-03-01T21:29:05;34.53;;;26.70;;
795;SDS011;381;48.770;9.188;2023-03-01T21:34:10;33.37;;;26.80;;
795;SDS011;381;48.770;9.188;2023-03-01T21:39:15;54.33;;;30.30;;
795;SDS011;381;48.770;9.188;2023-03-01T21:44:17;74.23;;;34.47;;
795;SDS011;381;48.770;9.188;2023-03-01T21:49:19;30.00;;;25.33;;
795;SDS011;381;48.770;9.188;2023-03-01T21:54:23;29.83;;;25.10;;
795;SDS011;381;48.770;9.188;2023-03-01T21:59:25;28.10;;;25.10;;
795;SDS011;381;48.770;9.188;2023-03-01T22:04:28;29.70;;;26.00;;
795;SDS011;381;48.770;9.188;2023-03-01T22:09:31;28.50;;;25.27;;
795;SDS011;381;48.770;9.188;2023-03-01T22:14:35;30.37;;;26.00;;
795;SDS011;381;48.770;9.188;2023-03-01T22:19:37;31.90;;;25.80;;
795;SDS011;381;48.770;9.188;2023-03-01T22:24:40;26.80;;;23.93;;
795;SDS011;381;48.770;9.188;2023-03-01T22:29:45;26.60;;;23.40;;
795;SDS011;381;48.770;9.188;2023-03-01T22:34:48;28.07;;;25.07;;
795;SDS011;381;48.770;9.188;2023-03-01T22:39:57;27.27;;;24.47;;
795;SDS011;381;48.770;9.188;2023-03-01T22:45:02;29.03;;;25.87;;
795;SDS011;381;48.770;9.188;2023-03-01T22:50:05;27.90;;;25.03;;
795;SDS011;381;48.770;9.188;2023-03-01T22:55:10;28.20;;;25.07;;
795;SDS011;381;48.770;9.188;2023-03-01T23:00:12;31.50;;;26.10;;
795;SDS011;381;48.770;9.188;2023-03-01T23:05:15;28.90;;;25.80;;
795;SDS011;381;48.770;9.188;2023-03-01T23:10:18;28.07;;;25.13;;
795;SDS011;381;48.770;9.188;2023-03-01T23:15:21;28.03;;;25.00;;
795;SDS011;381;48.770;9.188;2023-03-01T23:20:23;29.47;;;26.17;;
795;SDS011;381;48.770;9.188;2023-03-01T23:25:26;27.97;;;25.07;;
795;SDS011;381;48.770;9.188;2023-03-01T23:30:28;29.03;;;25.90;;
795;SDS011;381;48.770;9.188;2023-03-01T23:35:30;32.57;;;25.40;;
795;SDS011;381;48.770;9.188;2023-03-01T23:40:34;28.93;;;25.67;;
795;SDS011;381;48.770;9.188;2023-03-01T23:45:39;27.80;;;24.87;;
795;SDS011;381;48.770;9.188;2023-03-01T23:50:42;29.40;;;24.50;;
795;SDS011;381;48.770;9.188;2023-03-01T23:55:46;30.23;;;26.07;;
